createdAt,value
2022-12-28T00:02:19.142Z,0.91
2022-12-28T00:04:48.786Z,0.90
2022-12-28T00:07:17.646Z,0.89
2022-12-28T00:09:45.989Z,0.88
2022-12-28T00:12:16.173Z,0.87
2022-12-28T00:14:45.970Z,0.87
2022-12-28T00:17:15.175Z,0.89
2022-12-28T00:19:45.589Z,0.90
2022-12-28T00:22:13.457Z,0.91
2022-12-28T00:24:41.262Z,0.92
2022-12-28T00:27:09.358Z,0.96
2022-12-28T00:29:37.709Z,0.98
2022-12-28T00:32:06.245Z,1.01
2022-12-28T00:34:36.664Z,1.03
2022-12-28T00:37:08.790Z,1.06
2022-12-28T00:39:42.572Z,1.08
2022-12-28T00:42:11.151Z,1.11
2022-12-28T00:44:39.223Z,1.13
2022-12-28T00:47:07.231Z,1.14
2022-12-28T00:49:37.973Z,1.16
2022-12-28T00:52:07.042Z,1.17
2022-12-28T00:54:35.722Z,1.20
2022-12-28T00:57:03.784Z,1.21
2022-12-28T00:59:32.021Z,1.20
2022-12-28T01:02:00.707Z,1.17
2022-12-28T01:04:28.803Z,1.12
2022-12-28T01:06:56.576Z,1.05
2022-12-28T01:09:24.672Z,0.98
2022-12-28T01:11:52.582Z,0.89
2022-12-28T01:14:20.349Z,0.80
2022-12-28T01:16:48.278Z,0.69
2022-12-28T01:19:21.268Z,0.61
2022-12-28T01:21:52.610Z,0.53
2022-12-28T01:24:21.122Z,0.45
2022-12-28T01:26:49.932Z,0.37
2022-12-28T01:29:17.620Z,0.30
2022-12-28T01:31:45.667Z,0.24
2022-12-28T01:34:14.116Z,0.17
2022-12-28T01:36:42.072Z,0.12
2022-12-28T01:39:11.151Z,0.07
2022-12-28T01:41:40.786Z,0.04
2022-12-28T01:44:08.814Z,0.01
2022-12-28T01:47:04.164Z,-0.02
2022-12-28T01:49:49.796Z,-0.03
2022-12-28T01:52:29.005Z,-0.05
2022-12-28T01:55:04.799Z,-0.06
2022-12-28T01:57:39.530Z,-0.06
2022-12-28T02:00:11.882Z,-0.06
2022-12-28T02:02:44.953Z,-0.07
2022-12-28T02:05:14.158Z,-0.08
2022-12-28T02:08:09.040Z,-0.11
2022-12-28T02:10:41.792Z,-0.12
2022-12-28T02:13:15.244Z,-0.12
2022-12-28T02:15:45.215Z,-0.12
2022-12-28T02:18:15.748Z,-0.12
2022-12-28T02:21:06.015Z,-0.12
2022-12-28T02:23:47.259Z,-0.14
2022-12-28T02:26:44.290Z,-0.17
2022-12-28T02:29:27.170Z,-0.17
2022-12-28T02:32:17.040Z,-0.18
2022-12-28T02:35:06.989Z,-0.16
2022-12-28T02:37:52.365Z,-0.15
2022-12-28T02:40:30.132Z,-0.15
2022-12-28T02:42:58.318Z,-0.17
2022-12-28T02:45:37.910Z,-0.17
2022-12-28T02:48:08.911Z,-0.15
2022-12-28T02:51:00.969Z,-0.14
2022-12-28T02:53:41.354Z,-0.10
2022-12-28T02:56:44.291Z,-0.09
2022-12-28T02:59:26.008Z,-0.07
2022-12-28T03:02:51.670Z,-0.07
2022-12-28T03:05:28.951Z,-0.08
2022-12-28T03:08:07.915Z,-0.08
2022-12-28T03:10:50.231Z,-0.08
2022-12-28T03:13:32.691Z,-0.07
2022-12-28T03:16:05.385Z,-0.08
2022-12-28T03:18:36.413Z,-0.10
2022-12-28T03:21:09.065Z,-0.13
2022-12-28T03:23:41.371Z,-0.16
2022-12-28T03:26:13.975Z,-0.20
2022-12-28T03:28:45.135Z,-0.24
2022-12-28T03:31:21.849Z,-0.28
2022-12-28T03:33:51.494Z,-0.33
2022-12-28T03:36:29.505Z,-0.38
2022-12-28T03:39:23.143Z,-0.42
2022-12-28T03:42:14.477Z,-0.46
2022-12-28T03:44:51.029Z,-0.51
2022-12-28T03:47:21.580Z,-0.56
2022-12-28T03:49:49.649Z,-0.61
2022-12-28T03:52:19.150Z,-0.65
2022-12-28T03:54:47.856Z,-0.68
2022-12-28T03:57:16.708Z,-0.70
2022-12-28T03:59:44.787Z,-0.69
2022-12-28T04:02:14.426Z,-0.69
2022-12-28T04:04:45.053Z,-0.72
2022-12-28T04:07:13.279Z,-0.74
2022-12-28T04:09:41.309Z,-0.74
2022-12-28T04:12:10.149Z,-0.73
2022-12-28T04:14:38.180Z,-0.71
2022-12-28T04:17:06.696Z,-0.71
2022-12-28T04:19:35.833Z,-0.71
2022-12-28T04:22:04.299Z,-0.72
2022-12-28T04:24:33.033Z,-0.72
2022-12-28T04:27:01.744Z,-0.72
2022-12-28T04:29:29.402Z,-0.73
2022-12-28T04:31:57.135Z,-0.77
2022-12-28T04:34:25.835Z,-0.80
2022-12-28T04:36:54.465Z,-0.84
2022-12-28T04:39:22.665Z,-0.88
2022-12-28T04:41:52.261Z,-0.92
2022-12-28T04:44:20.950Z,-0.96
2022-12-28T04:46:48.788Z,-1.00
2022-12-28T04:49:16.395Z,-1.04
2022-12-28T04:51:44.961Z,-1.08
2022-12-28T04:54:14.462Z,-1.12
2022-12-28T04:56:42.248Z,-1.14
2022-12-28T04:59:10.824Z,-1.16
2022-12-28T05:01:40.001Z,-1.18
2022-12-28T05:04:08.839Z,-1.20
2022-12-28T05:06:37.087Z,-1.21
2022-12-28T05:09:05.904Z,-1.21
2022-12-28T05:11:33.673Z,-1.21
2022-12-28T05:14:02.453Z,-1.21
2022-12-28T05:16:30.112Z,-1.22
2022-12-28T05:18:57.946Z,-1.23
2022-12-28T05:21:28.264Z,-1.23
2022-12-28T05:23:57.320Z,-1.22
2022-12-28T05:26:28.677Z,-1.23
2022-12-28T05:28:58.701Z,-1.25
2022-12-28T05:31:28.486Z,-1.28
2022-12-28T05:33:58.144Z,-1.31
2022-12-28T05:36:28.325Z,-1.31
2022-12-28T05:38:56.362Z,-1.30
2022-12-28T05:41:28.825Z,-1.32
2022-12-28T05:43:58.771Z,-1.34
2022-12-28T05:46:31.357Z,-1.37
2022-12-28T05:49:00.667Z,-1.40
2022-12-28T05:51:31.306Z,-1.42
2022-12-28T05:54:01.925Z,-1.42
2022-12-28T05:56:31.991Z,-1.40
2022-12-28T05:59:06.213Z,-1.40
2022-12-28T06:01:38.696Z,-1.35
2022-12-28T06:04:27.954Z,-1.33
2022-12-28T06:06:57.290Z,-1.33
2022-12-28T06:09:28.162Z,-1.33
2022-12-28T06:11:56.775Z,-1.33
2022-12-28T06:14:25.097Z,-1.33
2022-12-28T06:16:53.269Z,-1.33
2022-12-28T06:19:20.960Z,-1.33
2022-12-28T06:21:49.631Z,-1.33
2022-12-28T06:24:17.914Z,-1.34
2022-12-28T06:26:46.988Z,-1.34
2022-12-28T06:29:14.959Z,-1.31
2022-12-28T06:31:47.087Z,-1.29
2022-12-28T06:34:15.326Z,-1.27
2022-12-28T06:36:45.507Z,-1.25
2022-12-28T06:39:14.660Z,-1.24
2022-12-28T06:41:42.855Z,-1.22
2022-12-28T06:44:13.099Z,-1.20
2022-12-28T06:46:41.129Z,-1.18
2022-12-28T06:49:09.235Z,-1.18
2022-12-28T06:51:39.104Z,-1.18
2022-12-28T06:54:07.545Z,-1.18
2022-12-28T06:56:37.702Z,-1.18
2022-12-28T06:59:06.525Z,-1.18
2022-12-28T07:01:39.209Z,-1.19
2022-12-28T07:04:09.708Z,-1.19
2022-12-28T07:06:43.677Z,-1.19
2022-12-28T07:09:14.293Z,-1.17
2022-12-28T07:11:44.004Z,-1.17
2022-12-28T07:14:12.516Z,-1.16
2022-12-28T07:19:08.353Z,-1.04
2022-12-28T07:21:38.452Z,-0.95
2022-12-28T07:24:08.008Z,-0.86
2022-12-28T07:26:37.612Z,-0.79
2022-12-28T07:29:07.628Z,-0.72
2022-12-28T07:31:44.863Z,-0.64
2022-12-28T07:34:15.831Z,-0.57
2022-12-28T07:36:44.016Z,-0.49
2022-12-28T07:39:12.036Z,-0.44
2022-12-28T07:41:40.091Z,-0.38
2022-12-28T07:44:08.404Z,-0.32
2022-12-28T07:46:37.927Z,-0.26
2022-12-28T07:49:06.718Z,-0.22
2022-12-28T07:51:37.739Z,-0.18
2022-12-28T07:54:06.484Z,-0.14
2022-12-28T07:59:04.690Z,-0.07
2022-12-28T08:01:34.154Z,-0.03
2022-12-28T08:04:05.724Z,0.01
2022-12-28T08:06:37.016Z,0.06
2022-12-28T08:09:07.147Z,0.12
2022-12-28T08:11:38.780Z,0.18
2022-12-28T08:14:07.313Z,0.25
2022-12-28T08:16:38.074Z,0.35
2022-12-28T08:19:06.928Z,0.44
2022-12-28T08:21:37.807Z,0.52
2022-12-28T08:24:06.988Z,0.61
2022-12-28T08:26:38.697Z,0.70
2022-12-28T08:29:12.696Z,0.79
2022-12-28T08:31:43.420Z,0.88
2022-12-28T08:34:18.443Z,0.97
2022-12-28T08:36:47.465Z,1.05
2022-12-28T08:39:15.697Z,1.13
2022-12-28T08:41:43.919Z,1.18
2022-12-28T08:44:12.493Z,1.24
2022-12-28T08:46:40.560Z,1.27
2022-12-28T08:49:09.541Z,1.30
2022-12-28T08:51:40.371Z,1.35
2022-12-28T08:54:10.567Z,1.41
2022-12-28T08:56:40.731Z,1.47
2022-12-28T08:59:09.491Z,1.52
2022-12-28T09:01:44.052Z,1.58
2022-12-28T09:04:15.639Z,1.66
2022-12-28T09:06:44.665Z,1.72
2022-12-28T09:09:14.853Z,1.81
2022-12-28T09:11:44.223Z,1.90
2022-12-28T09:14:22.051Z,2.00
2022-12-28T09:16:55.229Z,2.08
2022-12-28T09:19:25.640Z,2.14
2022-12-28T09:21:54.407Z,2.21
2022-12-28T09:24:23.951Z,2.24
2022-12-28T09:26:52.101Z,2.28
2022-12-28T09:29:20.408Z,2.30
2022-12-28T09:31:49.716Z,2.35
2022-12-28T09:37:08.008Z,2.47
2022-12-28T09:39:35.735Z,2.52
2022-12-28T09:42:06.109Z,2.54
2022-12-28T09:44:40.331Z,2.56
2022-12-28T09:47:08.122Z,2.58
2022-12-28T09:49:56.417Z,2.59
2022-12-28T09:52:29.906Z,2.61
2022-12-28T09:55:07.096Z,2.64
2022-12-28T09:57:39.263Z,2.69
2022-12-28T10:00:15.979Z,2.74
2022-12-28T10:02:51.094Z,2.81
2022-12-28T10:05:21.639Z,2.85
2022-12-28T10:07:51.212Z,2.87
2022-12-28T10:10:22.045Z,2.91
2022-12-28T10:12:51.074Z,2.94
2022-12-28T10:15:20.111Z,2.96
2022-12-28T10:17:48.576Z,2.98
2022-12-28T10:20:19.332Z,3.00
2022-12-28T10:22:55.866Z,3.01
2022-12-28T10:25:25.912Z,3.04
2022-12-28T10:27:54.917Z,3.07
2022-12-28T10:30:27.390Z,3.10
2022-12-28T10:33:03.125Z,3.13
2022-12-28T10:35:51.168Z,3.18
2022-12-28T10:38:34.790Z,3.23
2022-12-28T10:41:10.527Z,3.27
2022-12-28T10:43:41.502Z,3.33
2022-12-28T10:46:18.024Z,3.36
2022-12-28T10:48:53.963Z,3.38
2022-12-28T10:51:27.291Z,3.42
2022-12-28T10:53:57.602Z,3.45
2022-12-28T10:56:29.343Z,3.50
2022-12-28T10:59:11.949Z,3.55
2022-12-28T11:01:43.541Z,3.58
2022-12-28T11:04:23.785Z,3.61
2022-12-28T11:07:02.098Z,3.65
2022-12-28T11:09:35.589Z,3.69
2022-12-28T11:12:18.358Z,3.73
2022-12-28T11:14:46.017Z,3.77
2022-12-28T11:17:25.960Z,3.82
2022-12-28T11:20:06.967Z,3.87
2022-12-28T11:22:34.621Z,3.94
2022-12-28T11:25:04.139Z,4.00
2022-12-28T11:27:32.015Z,4.07
2022-12-28T11:30:00.212Z,4.15
2022-12-28T11:32:36.305Z,4.23
2022-12-28T11:35:05.399Z,4.32
2022-12-28T11:37:33.243Z,4.42
2022-12-28T11:40:01.613Z,4.58
2022-12-28T11:42:41.516Z,4.75
2022-12-28T11:45:16.542Z,4.94
2022-12-28T11:47:44.611Z,5.09
2022-12-28T11:50:33.999Z,5.25
2022-12-28T11:53:10.577Z,5.43
2022-12-28T11:55:56.147Z,5.60
2022-12-28T11:58:46.217Z,5.70
2022-12-28T12:01:30.610Z,5.85
2022-12-28T12:03:58.252Z,6.00
2022-12-28T12:06:42.818Z,6.12
2022-12-28T12:09:21.312Z,6.20
2022-12-28T12:11:51.371Z,6.16
2022-12-28T12:14:27.159Z,6.21
2022-12-28T12:17:12.746Z,6.27
2022-12-28T12:19:49.523Z,6.37
2022-12-28T12:22:32.931Z,6.47
2022-12-28T12:25:29.844Z,6.58
2022-12-28T12:28:02.115Z,6.68
2022-12-28T12:30:32.104Z,6.73
2022-12-28T12:33:12.533Z,6.75
2022-12-28T12:36:01.210Z,6.72
2022-12-28T12:38:40.884Z,6.65
2022-12-28T12:41:33.363Z,6.54
2022-12-28T12:44:27.602Z,6.47
2022-12-28T12:47:07.575Z,6.34
2022-12-28T12:49:56.578Z,6.25
2022-12-28T12:52:58.782Z,6.15
2022-12-28T12:55:35.646Z,6.04
2022-12-28T12:58:20.536Z,5.97
2022-12-28T13:01:13.691Z,5.88
2022-12-28T13:03:49.225Z,5.78
2022-12-28T13:06:22.969Z,5.73
2022-12-28T13:09:04.757Z,5.67
2022-12-28T13:11:38.969Z,5.63
2022-12-28T13:14:13.052Z,5.56
2022-12-28T13:16:41.048Z,5.52
2022-12-28T13:19:19.715Z,5.48
2022-12-28T13:21:48.446Z,5.44
2022-12-28T13:24:29.085Z,5.44
2022-12-28T13:26:59.192Z,5.43
2022-12-28T13:29:39.680Z,5.41
2022-12-28T13:32:30.334Z,5.37
2022-12-28T13:35:00.729Z,5.34
2022-12-28T13:37:29.293Z,5.33
2022-12-28T13:40:17.551Z,5.37
2022-12-28T13:43:14.879Z,5.46
2022-12-28T13:45:50.965Z,5.53
2022-12-28T13:48:19.624Z,5.55
2022-12-28T13:50:48.064Z,5.54
2022-12-28T13:53:27.090Z,5.51
2022-12-28T13:55:59.759Z,5.43
2022-12-28T13:58:36.360Z,5.34
2022-12-28T14:01:09.591Z,5.24
2022-12-28T14:03:42.343Z,5.14
2022-12-28T14:06:22.388Z,5.09
2022-12-28T14:08:51.335Z,5.09
2022-12-28T14:11:19.619Z,5.08
2022-12-28T14:13:49.133Z,5.07
2022-12-28T14:16:17.407Z,5.03
2022-12-28T14:18:45.690Z,4.96
2022-12-28T14:21:13.839Z,4.89
2022-12-28T14:23:44.012Z,4.82
2022-12-28T14:26:22.755Z,4.73
2022-12-28T14:28:55.303Z,4.65
2022-12-28T14:31:32.009Z,4.56
2022-12-28T14:34:04.658Z,4.50
2022-12-28T14:36:47.922Z,4.43
2022-12-28T14:39:27.565Z,4.35
2022-12-28T14:41:57.333Z,4.28
2022-12-28T14:44:33.420Z,4.21
2022-12-28T14:47:04.099Z,4.14
2022-12-28T14:49:35.373Z,4.07
2022-12-28T14:52:09.279Z,4.03
2022-12-28T14:55:20.451Z,3.99
2022-12-28T14:57:51.539Z,3.93
2022-12-28T15:00:26.742Z,3.85
2022-12-28T15:02:56.223Z,3.75
2022-12-28T15:05:33.339Z,3.67
2022-12-28T15:08:01.955Z,3.57
2022-12-28T15:10:30.880Z,3.48
2022-12-28T15:12:58.621Z,3.41
2022-12-28T15:15:27.037Z,3.31
2022-12-28T15:17:55.311Z,3.20
2022-12-28T15:20:23.469Z,3.10
2022-12-28T15:22:51.727Z,3.00
2022-12-28T15:25:19.708Z,2.91
2022-12-28T15:27:51.964Z,2.83
2022-12-28T15:30:28.735Z,2.77
2022-12-28T15:32:57.166Z,2.70
2022-12-28T15:35:25.882Z,2.65
2022-12-28T15:37:54.414Z,2.59
2022-12-28T15:40:23.272Z,2.53
2022-12-28T15:42:51.368Z,2.47
2022-12-28T15:45:19.322Z,2.44
2022-12-28T15:47:47.700Z,2.39
2022-12-28T15:50:15.929Z,2.35
2022-12-28T15:52:44.138Z,2.32
2022-12-28T15:55:12.787Z,2.27
2022-12-28T15:57:40.668Z,2.21
2022-12-28T16:00:09.797Z,2.17
2022-12-28T16:02:38.340Z,2.11
2022-12-28T16:05:09.956Z,2.08
2022-12-28T16:07:38.509Z,2.06
2022-12-28T16:10:06.753Z,2.00
2022-12-28T16:12:35.937Z,1.96
2022-12-28T16:15:04.790Z,1.93
2022-12-28T16:17:32.933Z,1.87
2022-12-28T16:20:01.527Z,1.84
2022-12-28T16:22:29.759Z,1.81
2022-12-28T16:24:57.539Z,1.78
2022-12-28T16:27:25.476Z,1.77
2022-12-28T16:29:58.578Z,1.76
2022-12-28T16:32:27.676Z,1.76
2022-12-28T16:34:55.805Z,1.74
2022-12-28T16:37:24.966Z,1.76
2022-12-28T16:39:54.784Z,1.77
2022-12-28T16:42:23.526Z,1.77
2022-12-28T16:44:51.794Z,1.82
2022-12-28T16:47:20.173Z,1.88
2022-12-28T16:49:47.895Z,1.91
2022-12-28T16:52:16.208Z,1.99
2022-12-28T16:54:44.280Z,2.00
2022-12-28T16:57:12.839Z,1.99
2022-12-28T16:59:41.106Z,1.99
2022-12-28T17:02:13.482Z,1.98
2022-12-28T17:04:42.032Z,1.99
2022-12-28T17:07:10.177Z,1.96
2022-12-28T17:09:38.089Z,1.91
2022-12-28T17:12:06.530Z,1.85
2022-12-28T17:14:37.799Z,1.80
2022-12-28T17:17:06.408Z,1.79
2022-12-28T17:19:35.617Z,1.83
2022-12-28T17:22:04.625Z,1.89
2022-12-28T17:24:33.927Z,1.94
2022-12-28T17:27:07.792Z,1.99
2022-12-28T17:29:38.834Z,2.04
2022-12-28T17:32:07.567Z,2.10
2022-12-28T17:34:36.313Z,2.17
2022-12-28T17:37:04.590Z,2.23
2022-12-28T17:39:37.939Z,2.26
2022-12-28T17:42:08.942Z,2.28
2022-12-28T17:44:37.488Z,2.30
2022-12-28T17:47:05.937Z,2.34
2022-12-28T17:49:34.755Z,2.35
2022-12-28T17:52:03.371Z,2.35
2022-12-28T17:54:31.688Z,2.37
2022-12-28T17:56:59.825Z,2.36
2022-12-28T17:59:30.133Z,2.36
2022-12-28T18:01:58.162Z,2.35
2022-12-28T18:04:27.762Z,2.37
2022-12-28T18:06:55.853Z,2.39
2022-12-28T18:09:27.596Z,2.42
2022-12-28T18:11:56.690Z,2.46
2022-12-28T18:14:25.874Z,2.47
2022-12-28T18:16:56.195Z,2.46
2022-12-28T18:19:24.722Z,2.44
2022-12-28T18:21:53.050Z,2.42
2022-12-28T18:24:21.365Z,2.41
2022-12-28T18:26:50.666Z,2.38
2022-12-28T18:29:18.494Z,2.34
2022-12-28T18:31:46.542Z,2.30
2022-12-28T18:34:14.292Z,2.28
2022-12-28T18:36:43.637Z,2.26
2022-12-28T18:39:12.421Z,2.24
2022-12-28T18:41:41.598Z,2.21
2022-12-28T18:44:09.833Z,2.19
2022-12-28T18:46:38.425Z,2.22
2022-12-28T18:49:06.705Z,2.30
2022-12-28T18:51:34.821Z,2.36
2022-12-28T18:54:03.375Z,2.38
2022-12-28T18:56:31.337Z,2.40
2022-12-28T18:58:59.919Z,2.41
2022-12-28T19:04:17.737Z,2.46
2022-12-28T19:06:47.415Z,2.44
2022-12-28T19:09:15.605Z,2.39
2022-12-28T19:11:44.599Z,2.36
2022-12-28T19:14:14.614Z,2.36
2022-12-28T19:16:42.770Z,2.35
2022-12-28T19:19:11.563Z,2.34
2022-12-28T19:21:43.127Z,2.33
2022-12-28T19:24:18.959Z,2.32
2022-12-28T19:26:47.517Z,2.31
2022-12-28T19:29:18.053Z,2.33
2022-12-28T19:31:46.044Z,2.35
2022-12-28T19:34:15.075Z,2.35
2022-12-28T19:36:43.816Z,2.35
2022-12-28T19:39:12.898Z,2.38
2022-12-28T19:41:41.185Z,2.39
2022-12-28T19:44:09.343Z,2.40
2022-12-28T19:46:38.480Z,2.43
2022-12-28T19:49:06.463Z,2.44
2022-12-28T19:51:34.251Z,2.43
2022-12-28T19:54:02.072Z,2.40
2022-12-28T19:56:30.509Z,2.38
2022-12-28T19:59:06.420Z,2.40
2022-12-28T20:01:37.576Z,2.40
2022-12-28T20:04:13.493Z,2.36
2022-12-28T20:06:44.409Z,2.32
2022-12-28T20:09:14.627Z,2.23
2022-12-28T20:11:42.987Z,2.16
2022-12-28T20:14:19.110Z,2.10
2022-12-28T20:16:53.228Z,2.11
2022-12-28T20:19:21.367Z,2.15
2022-12-28T20:21:51.871Z,2.18
2022-12-28T20:24:20.056Z,2.16
2022-12-28T20:26:49.682Z,2.16
2022-12-28T20:29:17.443Z,2.12
2022-12-28T20:31:46.512Z,2.06
2022-12-28T20:34:14.227Z,2.00
2022-12-28T20:36:43.691Z,1.97
2022-12-28T20:39:12.084Z,1.95
2022-12-28T20:41:44.826Z,1.92
2022-12-28T20:44:22.616Z,1.90
2022-12-28T20:46:51.474Z,1.87
2022-12-28T20:49:21.197Z,1.83
2022-12-28T20:51:49.209Z,1.78
2022-12-28T20:54:20.545Z,1.78
2022-12-28T20:56:54.407Z,1.76
2022-12-28T20:59:25.469Z,1.72
2022-12-28T21:01:53.980Z,1.71
2022-12-28T21:04:24.331Z,1.70
2022-12-28T21:06:56.770Z,1.73
2022-12-28T21:09:25.425Z,1.78
2022-12-28T21:11:53.328Z,1.82
2022-12-28T21:14:22.723Z,1.86
2022-12-28T21:16:51.252Z,1.89
2022-12-28T21:19:18.989Z,1.91
2022-12-28T21:21:47.292Z,1.94
2022-12-28T21:24:15.366Z,1.96
2022-12-28T21:26:44.162Z,1.97
2022-12-28T21:29:12.013Z,1.95
2022-12-28T21:31:39.709Z,1.94
2022-12-28T21:34:07.626Z,1.92
2022-12-28T21:36:35.528Z,1.89
2022-12-28T21:39:03.809Z,1.84
2022-12-28T21:41:31.907Z,1.80
2022-12-28T21:43:59.693Z,1.76
2022-12-28T21:46:27.555Z,1.71
2022-12-28T21:48:55.588Z,1.68
2022-12-28T21:51:24.092Z,1.67
2022-12-28T21:53:53.066Z,1.66
2022-12-28T21:56:21.208Z,1.68
2022-12-28T21:58:51.350Z,1.72
2022-12-28T22:01:19.927Z,1.76
2022-12-28T22:03:47.976Z,1.84
2022-12-28T22:06:16.169Z,1.92
2022-12-28T22:08:44.174Z,1.97
2022-12-28T22:11:12.766Z,2.01
2022-12-28T22:13:40.630Z,2.06
2022-12-28T22:16:09.107Z,2.14
2022-12-28T22:19:00.980Z,2.23
2022-12-28T22:21:25.769Z,2.30
2022-12-28T22:23:54.625Z,2.34
2022-12-28T22:26:22.528Z,2.36
2022-12-28T22:28:53.813Z,2.39
2022-12-28T22:31:23.686Z,2.42
2022-12-28T22:33:53.405Z,2.47
2022-12-28T22:36:23.746Z,2.55
2022-12-28T22:38:52.091Z,2.60
2022-12-28T22:41:21.186Z,2.64
2022-12-28T22:43:50.387Z,2.67
2022-12-28T22:46:20.749Z,2.72
2022-12-28T22:48:49.624Z,2.76
2022-12-28T22:51:17.936Z,2.76
2022-12-28T22:53:46.473Z,2.77
2022-12-28T22:56:14.401Z,2.79
2022-12-28T22:58:42.579Z,2.82
2022-12-28T23:01:13.508Z,2.82
2022-12-28T23:03:43.738Z,2.79
2022-12-28T23:06:14.805Z,2.77
2022-12-28T23:08:42.940Z,2.75
2022-12-28T23:11:14.435Z,2.73
2022-12-28T23:13:42.751Z,2.74
2022-12-28T23:16:10.687Z,2.77
2022-12-28T23:18:40.895Z,2.76
2022-12-28T23:21:16.170Z,2.77
2022-12-28T23:23:44.193Z,2.76
2022-12-28T23:26:11.969Z,2.75
2022-12-28T23:28:39.617Z,2.75
2022-12-28T23:31:09.127Z,2.76
2022-12-28T23:33:37.008Z,2.76
2022-12-28T23:36:05.669Z,2.80
2022-12-28T23:38:35.529Z,2.81
2022-12-28T23:41:08.555Z,2.79
2022-12-28T23:43:36.672Z,2.76
2022-12-28T23:46:06.613Z,2.75
2022-12-28T23:48:34.940Z,2.72
2022-12-28T23:51:05.516Z,2.67
2022-12-28T23:53:33.467Z,2.63
2022-12-28T23:56:01.727Z,2.60
2022-12-28T23:58:29.700Z,2.59
